Time;durP1;ratioP1;P1;durP2;ratioP2;P2;SDS_P1;SDS_P2;PMS_P1;PMS_P2;Temp;Humidity;BMP_temperature;BMP_pressure;BME280_temperature;BME280_humidity;BME280_pressure;Samples;Min_cycle;Max_cycle;Signal;HPM_P1;HPM_P2
2023/10/28 00:00:29;;;;;;;16.63;15.70;;;11.00;99.90;;;;;;4851587;29;20195;-52
2023/10/28 00:02:55;;;;;;;16.03;14.93;;;11.00;99.90;;;;;;4850418;29;20437;-51
2023/10/28 00:05:21;;;;;;;16.30;15.40;;;10.90;99.90;;;;;;4853456;29;20473;-54
2023/10/28 00:07:46;;;;;;;16.43;15.50;;;10.90;99.90;;;;;;4850802;29;20422;-50
2023/10/28 00:10:13;;;;;;;16.50;15.40;;;10.80;99.90;;;;;;4853177;29;20267;-53
2023/10/28 00:12:39;;;;;;;16.23;15.23;;;10.70;99.90;;;;;;4851411;29;20242;-49
2023/10/28 00:15:06;;;;;;;16.27;15.37;;;10.60;99.90;;;;;;4849291;29;20491;-48
2023/10/28 00:17:31;;;;;;;16.60;15.50;;;10.60;99.90;;;;;;4851265;29;20425;-48
2023/10/28 00:19:57;;;;;;;17.00;15.80;;;10.60;99.90;;;;;;4853453;29;20445;-50
2023/10/28 00:22:23;;;;;;;17.17;15.97;;;10.50;99.90;;;;;;4850561;29;20280;-49
2023/10/28 00:24:49;;;;;;;16.60;15.50;;;10.40;99.90;;;;;;4850567;29;20359;-53
2023/10/28 00:27:15;;;;;;;17.17;15.97;;;10.40;99.90;;;;;;4850543;29;20436;-51
2023/10/28 00:29:41;;;;;;;17.00;15.90;;;10.30;99.90;;;;;;4850457;29;20188;-47
2023/10/28 00:32:07;;;;;;;17.07;15.97;;;10.30;99.90;;;;;;4850737;29;20449;-50
2023/10/28 00:34:32;;;;;;;16.70;15.70;;;10.20;99.90;;;;;;4851134;29;20199;-47
2023/10/28 00:36:58;;;;;;;16.30;15.20;;;10.10;99.90;;;;;;4852229;29;20196;-50
2023/10/28 00:39:24;;;;;;;17.00;15.90;;;10.10;99.90;;;;;;4851095;29;20196;-50
2023/10/28 00:41:50;;;;;;;16.80;15.63;;;10.10;99.90;;;;;;4850898;29;20428;-48
2023/10/28 00:44:16;;;;;;;17.07;15.80;;;10.00;99.90;;;;;;4851745;29;20275;-49
2023/10/28 00:46:42;;;;;;;16.77;15.67;;;10.00;99.90;;;;;;4839588;29;20247;-49
2023/10/28 00:49:09;;;;;;;17.03;15.93;;;10.00;99.90;;;;;;4851956;29;20448;-47
2023/10/28 00:51:35;;;;;;;16.50;15.50;;;9.90;99.90;;;;;;4848232;29;20452;-52
2023/10/28 00:54:01;;;;;;;17.23;15.93;;;9.90;99.90;;;;;;4853762;29;20484;-49
2023/10/28 00:56:28;;;;;;;17.60;16.20;;;9.80;99.90;;;;;;4850215;29;20508;-51
2023/10/28 00:58:54;;;;;;;16.80;15.70;;;9.80;99.90;;;;;;4849692;29;20570;-52
2023/10/28 01:01:19;;;;;;;16.73;15.63;;;9.80;99.90;;;;;;4850968;29;20545;-46
2023/10/28 01:03:45;;;;;;;16.70;15.40;;;9.80;99.90;;;;;;4851118;29;20589;-50
2023/10/28 01:06:12;;;;;;;16.90;15.70;;;9.80;99.90;;;;;;4854156;29;20876;-50
2023/10/28 01:08:38;;;;;;;16.57;15.57;;;9.80;99.90;;;;;;4855332;29;20235;-49
2023/10/28 01:11:04;;;;;;;16.90;15.80;;;9.80;99.90;;;;;;4849703;29;20533;-50
2023/10/28 01:13:30;;;;;;;17.30;16.00;;;9.80;99.90;;;;;;4850212;29;20424;-52
2023/10/28 01:15:56;;;;;;;16.80;15.80;;;9.70;99.90;;;;;;4848904;29;21125;-46
2023/10/28 01:18:23;;;;;;;15.70;14.70;;;9.70;99.90;;;;;;4854553;29;20452;-52
2023/10/28 01:20:49;;;;;;;16.57;15.40;;;9.70;99.90;;;;;;4850197;29;20460;-51
2023/10/28 01:23:14;;;;;;;16.50;15.40;;;9.60;99.90;;;;;;4850089;29;20497;-53
2023/10/28 01:25:40;;;;;;;15.63;14.70;;;9.50;99.90;;;;;;4849399;29;20213;-52
2023/10/28 01:28:08;;;;;;;15.80;14.80;;;9.50;99.90;;;;;;4850725;29;20305;-49
2023/10/28 01:30:34;;;;;;;16.30;15.20;;;9.50;99.90;;;;;;4848238;29;21522;-49
2023/10/28 01:32:59;;;;;;;15.80;14.60;;;9.40;99.90;;;;;;4850157;29;20591;-52
2023/10/28 01:35:25;;;;;;;15.77;14.77;;;9.40;99.90;;;;;;4849205;29;20425;-50
2023/10/28 01:37:51;;;;;;;16.43;15.43;;;9.40;99.90;;;;;;4850056;29;20196;-52
2023/10/28 01:40:18;;;;;;;16.80;15.67;;;9.40;99.90;;;;;;4854340;29;20535;-48
2023/10/28 01:42:45;;;;;;;15.73;14.73;;;9.40;99.90;;;;;;4852519;29;20477;-47
2023/10/28 01:45:11;;;;;;;15.50;14.50;;;9.40;99.90;;;;;;4850083;29;20487;-49
2023/10/28 01:47:39;;;;;;;16.13;15.17;;;9.50;99.90;;;;;;4849869;29;20421;-51
2023/10/28 01:50:11;;;;;;;15.53;14.63;;;9.50;99.90;;;;;;4851238;29;20434;-52
2023/10/28 01:52:37;;;;;;;16.37;15.17;;;9.50;99.90;;;;;;4852182;29;20898;-52
2023/10/28 01:55:03;;;;;;;16.00;14.90;;;9.50;99.90;;;;;;4848997;29;20432;-48
2023/10/28 01:57:28;;;;;;;15.50;14.60;;;9.60;99.90;;;;;;4858911;29;20449;-49
2023/10/28 01:59:55;;;;;;;16.43;15.40;;;9.60;99.90;;;;;;4850083;29;21160;-50
2023/10/28 02:02:20;;;;;;;16.33;14.90;;;9.60;99.90;;;;;;4848875;29;20223;-51
2023/10/28 02:04:46;;;;;;;16.37;15.27;;;9.60;99.90;;;;;;4851936;29;20473;-48
2023/10/28 02:07:12;;;;;;;16.10;15.10;;;9.50;99.90;;;;;;4849107;29;20200;-52
2023/10/28 02:09:37;;;;;;;15.77;14.87;;;9.50;99.90;;;;;;4849956;29;20550;-52
2023/10/28 02:12:04;;;;;;;16.27;15.37;;;9.50;99.90;;;;;;4848579;29;20244;-51
2023/10/28 02:14:30;;;;;;;15.43;14.53;;;9.50;99.90;;;;;;4849810;29;20275;-50
2023/10/28 02:16:56;;;;;;;15.73;14.83;;;9.50;99.90;;;;;;4844620;29;20448;-49
2023/10/28 02:19:22;;;;;;;16.07;14.97;;;9.50;99.90;;;;;;4853009;29;20444;-52
2023/10/28 02:21:50;;;;;;;15.13;14.23;;;9.50;99.90;;;;;;4854596;29;20843;-54
2023/10/28 02:24:19;;;;;;;15.03;14.07;;;9.50;99.90;;;;;;4850429;29;20256;-52
2023/10/28 02:26:45;;;;;;;15.20;14.33;;;9.50;99.90;;;;;;4853697;29;20568;-50
2023/10/28 02:29:11;;;;;;;15.30;14.40;;;9.60;99.90;;;;;;4853572;29;20433;-51
2023/10/28 02:31:37;;;;;;;14.80;14.00;;;9.60;99.90;;;;;;4851855;29;20448;-52
2023/10/28 02:34:06;;;;;;;15.47;14.47;;;9.50;99.90;;;;;;4853354;29;21523;-52
2023/10/28 02:36:32;;;;;;;15.40;14.50;;;9.40;99.90;;;;;;4853866;29;20299;-49
2023/10/28 02:38:57;;;;;;;15.00;14.20;;;9.40;99.90;;;;;;4852840;29;20907;-50
2023/10/28 02:41:23;;;;;;;15.63;14.73;;;9.40;99.90;;;;;;4854672;29;20256;-52
2023/10/28 02:43:48;;;;;;;15.63;14.73;;;9.30;99.90;;;;;;4853307;29;20197;-49
2023/10/28 02:46:24;;;;;;;15.03;14.23;;;9.30;99.90;;;;;;4860615;29;20299;-52
2023/10/28 02:48:51;;;;;;;15.87;14.77;;;9.20;99.90;;;;;;4852708;29;20271;-50
2023/10/28 02:51:17;;;;;;;15.37;14.37;;;9.20;99.90;;;;;;4853153;29;21467;-51
2023/10/28 02:53:43;;;;;;;16.20;15.00;;;9.10;99.90;;;;;;4852075;29;20444;-52
2023/10/28 02:56:09;;;;;;;14.80;14.00;;;9.10;99.90;;;;;;4853353;29;20958;-48
2023/10/28 02:58:35;;;;;;;14.87;14.00;;;9.10;99.90;;;;;;4859958;29;20505;-52
2023/10/28 03:01:12;;;;;;;14.83;13.83;;;9.00;99.90;;;;;;4852975;29;20506;-52
2023/10/28 03:03:39;;;;;;;14.90;14.00;;;9.00;99.90;;;;;;4853525;29;20224;-52
2023/10/28 03:06:05;;;;;;;15.00;14.10;;;9.00;99.90;;;;;;4854147;29;20477;-53
2023/10/28 03:08:31;;;;;;;14.57;13.67;;;9.00;99.90;;;;;;4852256;29;20939;-43
2023/10/28 03:10:57;;;;;;;14.80;14.00;;;8.90;99.90;;;;;;4851991;29;20485;-54
2023/10/28 03:13:22;;;;;;;15.60;14.50;;;8.90;99.90;;;;;;4852003;29;20203;-49
2023/10/28 03:15:48;;;;;;;14.63;13.83;;;8.90;99.90;;;;;;4851738;29;20203;-48
2023/10/28 03:18:14;;;;;;;14.73;13.93;;;8.90;99.90;;;;;;4856315;29;20199;-49
2023/10/28 03:20:39;;;;;;;14.87;14.07;;;8.80;99.90;;;;;;4857572;29;20340;-52
2023/10/28 03:23:05;;;;;;;15.80;14.80;;;8.80;99.90;;;;;;4851351;29;20200;-54
2023/10/28 03:25:32;;;;;;;14.80;14.00;;;8.80;99.90;;;;;;4852214;29;20320;-52
2023/10/28 03:28:00;;;;;;;15.77;14.83;;;8.70;99.90;;;;;;4852323;29;20758;-48
2023/10/28 03:30:26;;;;;;;16.03;15.00;;;8.80;99.90;;;;;;4851554;29;20999;-50
2023/10/28 03:32:52;;;;;;;15.57;14.70;;;8.70;99.90;;;;;;4852246;29;20446;-48
2023/10/28 03:35:17;;;;;;;16.10;15.00;;;8.70;99.90;;;;;;4839614;29;20476;-47
2023/10/28 03:37:44;;;;;;;15.20;14.33;;;8.70;99.90;;;;;;4851407;29;20196;-50
2023/10/28 03:40:10;;;;;;;14.83;14.03;;;8.70;99.90;;;;;;4851956;29;20281;-54
2023/10/28 03:42:36;;;;;;;15.33;14.43;;;8.70;99.90;;;;;;4851128;29;20441;-51
2023/10/28 03:45:04;;;;;;;15.43;14.57;;;8.70;99.90;;;;;;4857985;29;20491;-51
2023/10/28 03:47:29;;;;;;;16.13;14.83;;;8.70;99.90;;;;;;4850809;29;20465;-53
2023/10/28 03:49:56;;;;;;;14.53;13.60;;;8.70;99.90;;;;;;4851157;29;20823;-50
2023/10/28 03:52:22;;;;;;;15.40;14.40;;;8.70;99.90;;;;;;4851234;29;20205;-52
2023/10/28 03:54:47;;;;;;;15.27;14.43;;;8.70;99.90;;;;;;4851328;29;20437;-52
2023/10/28 03:57:13;;;;;;;15.83;14.83;;;8.70;99.90;;;;;;4851131;29;20449;-49
2023/10/28 03:59:38;;;;;;;15.13;14.23;;;8.70;99.90;;;;;;4851266;29;20189;-51
2023/10/28 04:02:04;;;;;;;15.70;14.80;;;8.70;99.90;;;;;;4851196;29;20189;-48
2023/10/28 04:04:30;;;;;;;15.30;14.50;;;8.70;99.90;;;;;;4850650;29;20261;-51
2023/10/28 04:06:56;;;;;;;15.40;14.50;;;8.70;99.90;;;;;;4851326;29;20306;-52
2023/10/28 04:09:22;;;;;;;15.37;14.37;;;8.80;99.90;;;;;;4844065;29;20539;-51
2023/10/28 04:11:48;;;;;;;15.33;14.30;;;8.80;99.90;;;;;;4855914;29;20771;-48
2023/10/28 04:14:13;;;;;;;15.10;14.17;;;8.80;99.90;;;;;;4850023;29;20445;-52
2023/10/28 04:16:39;;;;;;;15.33;14.13;;;8.90;99.90;;;;;;4852299;29;20188;-50
2023/10/28 04:19:05;;;;;;;15.17;14.20;;;8.90;99.90;;;;;;4850304;29;20255;-48
2023/10/28 04:21:31;;;;;;;15.67;14.30;;;8.90;99.90;;;;;;4850640;29;20429;-48
2023/10/28 04:23:56;;;;;;;15.60;14.60;;;9.00;99.90;;;;;;4851050;29;20200;-53
2023/10/28 04:26:22;;;;;;;15.70;14.77;;;9.00;99.90;;;;;;4858320;29;20231;-52
2023/10/28 04:28:48;;;;;;;16.13;14.57;;;9.10;99.90;;;;;;4845793;29;20475;-49
2023/10/28 04:31:15;;;;;;;15.67;14.77;;;9.10;99.90;;;;;;4835133;29;20200;-54
2023/10/28 04:33:41;;;;;;;14.50;13.70;;;9.10;99.90;;;;;;4851036;29;20616;-50
2023/10/28 04:36:09;;;;;;;15.67;14.77;;;9.10;99.90;;;;;;4850613;29;20446;-51
2023/10/28 04:38:40;;;;;;;16.23;15.00;;;9.10;99.90;;;;;;4850307;29;21236;-52
2023/10/28 04:41:08;;;;;;;15.30;14.33;;;9.20;99.90;;;;;;4852403;29;20849;-52
2023/10/28 04:43:33;;;;;;;15.50;14.60;;;9.20;99.90;;;;;;4856415;29;20445;-50
2023/10/28 04:45:59;;;;;;;16.37;15.27;;;9.20;99.90;;;;;;4850427;29;21266;-52
2023/10/28 04:48:28;;;;;;;15.63;14.80;;;9.20;99.90;;;;;;4850246;29;20272;-49
2023/10/28 04:50:54;;;;;;;15.37;14.57;;;9.20;99.90;;;;;;4850053;29;20186;-54
2023/10/28 04:53:20;;;;;;;16.03;14.83;;;9.20;99.90;;;;;;4849657;29;20437;-53
2023/10/28 04:55:46;;;;;;;16.17;15.17;;;9.20;99.90;;;;;;4851229;29;20441;-51
2023/10/28 04:58:12;;;;;;;15.40;14.50;;;9.30;99.90;;;;;;4841764;29;20199;-50
2023/10/28 05:00:37;;;;;;;15.27;14.37;;;9.30;99.90;;;;;;4852531;29;20208;-52
2023/10/28 05:03:03;;;;;;;15.77;14.83;;;9.30;99.90;;;;;;4850238;29;21232;-53
2023/10/28 05:05:29;;;;;;;15.83;14.87;;;9.30;99.90;;;;;;4855033;29;21172;-52
2023/10/28 05:07:55;;;;;;;15.90;15.00;;;9.40;99.90;;;;;;4859507;29;20428;-53
2023/10/28 05:10:21;;;;;;;15.23;14.23;;;9.40;99.90;;;;;;4855974;29;20256;-51
2023/10/28 05:12:47;;;;;;;15.33;14.53;;;9.40;99.90;;;;;;4854558;29;20476;-54
2023/10/28 05:15:13;;;;;;;16.00;15.10;;;9.50;99.90;;;;;;4850436;29;20495;-53
2023/10/28 05:17:38;;;;;;;15.60;14.80;;;9.50;99.90;;;;;;4856160;29;20239;-48
2023/10/28 05:20:06;;;;;;;15.57;14.77;;;9.50;99.90;;;;;;4849644;29;20188;-51
2023/10/28 05:22:36;;;;;;;15.87;14.87;;;9.50;99.90;;;;;;4852314;29;20288;-52
2023/10/28 05:25:09;;;;;;;15.73;14.93;;;9.50;99.90;;;;;;4849432;29;20628;-52
2023/10/28 05:27:35;;;;;;;15.47;14.60;;;9.60;99.90;;;;;;4843827;29;20513;-50
2023/10/28 05:30:01;;;;;;;15.93;14.87;;;9.60;99.90;;;;;;4855703;29;20484;-49
2023/10/28 05:32:27;;;;;;;16.20;14.90;;;9.60;99.90;;;;;;4860686;29;20418;-51
2023/10/28 05:34:53;;;;;;;15.60;14.80;;;9.60;99.90;;;;;;4849848;29;20444;-51
2023/10/28 05:37:18;;;;;;;15.87;14.97;;;9.60;99.90;;;;;;4852480;29;20662;-47
2023/10/28 05:39:44;;;;;;;15.80;14.90;;;9.60;99.90;;;;;;4849192;29;20483;-50
2023/10/28 05:42:14;;;;;;;15.80;14.90;;;9.70;99.90;;;;;;4857096;29;20809;-53
2023/10/28 05:44:40;;;;;;;15.60;14.57;;;9.70;99.90;;;;;;4848242;29;20308;-49
2023/10/28 05:47:07;;;;;;;15.80;14.90;;;9.70;99.90;;;;;;4864704;29;20432;-52
2023/10/28 05:49:33;;;;;;;15.30;14.40;;;9.80;99.90;;;;;;4852031;29;20473;-51
2023/10/28 05:51:59;;;;;;;15.43;14.60;;;9.80;99.90;;;;;;4848548;29;20799;-50
2023/10/28 05:54:25;;;;;;;15.30;14.20;;;9.80;99.90;;;;;;4849165;29;20433;-49
2023/10/28 05:56:50;;;;;;;15.40;14.50;;;9.90;99.90;;;;;;4848831;29;20999;-50
2023/10/28 05:59:16;;;;;;;15.80;14.67;;;9.90;99.90;;;;;;4849606;29;20200;-54
2023/10/28 06:01:42;;;;;;;15.37;14.30;;;9.90;99.90;;;;;;4849189;29;20271;-50
2023/10/28 06:04:08;;;;;;;15.37;14.53;;;9.90;99.90;;;;;;4851684;29;20447;-54
2023/10/28 06:06:33;;;;;;;16.13;15.20;;;10.00;99.90;;;;;;4850229;29;20208;-52
2023/10/28 06:09:00;;;;;;;15.30;14.40;;;10.00;99.90;;;;;;4850516;29;20234;-47
2023/10/28 06:11:26;;;;;;;15.07;13.87;;;10.10;99.90;;;;;;4851250;29;20239;-51
2023/10/28 06:13:52;;;;;;;15.30;14.23;;;10.10;99.90;;;;;;4849063;29;20433;-48
2023/10/28 06:16:20;;;;;;;15.40;14.40;;;10.20;99.90;;;;;;4855286;29;20916;-50
2023/10/28 06:18:47;;;;;;;15.77;14.70;;;10.20;99.90;;;;;;4854876;29;20271;-47
2023/10/28 06:21:14;;;;;;;14.40;13.60;;;10.20;99.90;;;;;;4853470;29;20492;-52
2023/10/28 06:23:40;;;;;;;15.23;13.93;;;10.20;99.90;;;;;;4849049;29;20936;-51
2023/10/28 06:26:07;;;;;;;15.30;14.30;;;10.30;99.90;;;;;;4848794;29;20468;-51
2023/10/28 06:28:33;;;;;;;15.90;14.87;;;10.30;99.90;;;;;;4850957;29;20900;-48
2023/10/28 06:31:00;;;;;;;14.97;13.80;;;10.40;99.90;;;;;;4849566;29;20457;-51
2023/10/28 06:33:26;;;;;;;14.63;13.83;;;10.40;99.90;;;;;;4849507;29;20444;-52
2023/10/28 06:35:51;;;;;;;14.70;13.90;;;10.40;99.90;;;;;;4849627;29;21333;-49
2023/10/28 06:38:20;;;;;;;15.83;14.77;;;10.50;99.90;;;;;;4854180;29;20214;-52
2023/10/28 06:40:49;;;;;;;14.60;13.60;;;10.50;99.90;;;;;;4852354;29;20210;-47
2023/10/28 06:43:15;;;;;;;14.73;13.73;;;10.50;99.90;;;;;;4839961;29;20456;-51
2023/10/28 06:45:41;;;;;;;15.13;14.20;;;10.60;99.90;;;;;;4850345;29;20469;-49
2023/10/28 06:48:07;;;;;;;13.77;13.00;;;10.60;99.90;;;;;;4849065;29;20459;-52
2023/10/28 06:50:32;;;;;;;14.33;13.53;;;10.60;99.90;;;;;;4850275;29;20444;-48
2023/10/28 06:52:59;;;;;;;14.17;13.37;;;10.60;99.90;;;;;;4849307;29;21295;-41
2023/10/28 06:55:26;;;;;;;14.53;13.63;;;10.70;99.90;;;;;;4848279;29;20384;-40
2023/10/28 06:57:54;;;;;;;15.30;14.20;;;10.70;99.90;;;;;;4846242;29;20547;-41
2023/10/28 07:00:23;;;;;;;14.40;13.60;;;10.80;99.90;;;;;;4848849;29;20468;-50
2023/10/28 07:02:50;;;;;;;14.73;13.83;;;10.80;99.90;;;;;;4852007;29;20460;-53
2023/10/28 07:05:24;;;;;;;14.57;13.67;;;10.90;99.90;;;;;;4843898;29;20867;-53
2023/10/28 07:07:51;;;;;;;14.13;13.33;;;10.90;99.90;;;;;;4832470;29;20500;-53
2023/10/28 07:10:17;;;;;;;15.60;14.10;;;10.90;99.90;;;;;;4856371;29;20444;-46
2023/10/28 07:12:43;;;;;;;14.07;13.20;;;11.00;99.90;;;;;;4850927;29;20492;-48
2023/10/28 07:15:09;;;;;;;14.50;13.60;;;11.00;99.90;;;;;;4832403;29;20535;-51
2023/10/28 07:17:39;;;;;;;13.97;13.17;;;11.10;99.90;;;;;;4852758;29;20449;-50
2023/10/28 07:20:07;;;;;;;14.47;13.57;;;11.10;99.90;;;;;;4835845;29;20567;-53
2023/10/28 07:22:33;;;;;;;14.53;13.53;;;11.20;99.90;;;;;;4851879;29;20464;-50
2023/10/28 07:24:58;;;;;;;14.47;13.27;;;11.20;99.90;;;;;;4851226;29;21316;-49
2023/10/28 07:27:24;;;;;;;14.30;13.27;;;11.30;99.90;;;;;;4857963;29;20224;-53
2023/10/28 07:29:49;;;;;;;14.97;13.97;;;11.20;99.90;;;;;;4855946;29;20197;-51
2023/10/28 07:32:15;;;;;;;14.17;13.27;;;11.30;99.90;;;;;;4844322;29;20596;-50
2023/10/28 07:34:42;;;;;;;14.17;13.07;;;11.40;99.90;;;;;;4843494;29;20207;-52
2023/10/28 07:37:07;;;;;;;14.33;13.43;;;11.40;99.90;;;;;;4849156;29;20963;-50
2023/10/28 07:39:34;;;;;;;13.97;13.17;;;11.50;99.90;;;;;;4853869;29;20464;-53
2023/10/28 07:42:02;;;;;;;14.43;13.53;;;11.50;99.90;;;;;;4852161;29;20196;-52
2023/10/28 07:44:28;;;;;;;13.17;12.50;;;11.50;99.90;;;;;;4836071;29;20457;-47
2023/10/28 07:46:54;;;;;;;12.63;11.93;;;11.60;99.90;;;;;;4856058;29;20502;-51
2023/10/28 07:49:20;;;;;;;12.57;11.87;;;11.60;99.90;;;;;;4857285;29;20288;-47
2023/10/28 07:51:46;;;;;;;12.80;11.90;;;11.60;99.90;;;;;;4854948;29;20480;-49
2023/10/28 07:54:12;;;;;;;12.93;12.10;;;11.60;99.90;;;;;;4851475;29;20982;-49
2023/10/28 07:56:37;;;;;;;13.20;12.37;;;11.70;99.90;;;;;;4851926;29;20442;-51
2023/10/28 07:59:03;;;;;;;13.50;12.50;;;11.70;99.90;;;;;;4850824;29;20243;-48
2023/10/28 08:01:29;;;;;;;12.67;11.97;;;11.80;99.90;;;;;;4854569;29;20316;-47
2023/10/28 08:03:56;;;;;;;12.50;11.70;;;11.90;99.90;;;;;;4862124;29;20259;-49
2023/10/28 08:06:23;;;;;;;12.70;11.90;;;11.80;99.90;;;;;;4857481;29;20479;-50
2023/10/28 08:08:49;;;;;;;14.33;13.13;;;11.90;99.90;;;;;;4862716;29;20443;-51
2023/10/28 08:11:18;;;;;;;13.13;12.33;;;11.90;99.90;;;;;;4855684;29;20608;-50
2023/10/28 08:13:44;;;;;;;14.63;13.73;;;12.00;99.90;;;;;;4859721;29;20437;-52
2023/10/28 08:16:10;;;;;;;12.80;11.90;;;12.10;99.90;;;;;;4850160;29;20464;-50
2023/10/28 08:18:36;;;;;;;11.90;11.30;;;12.20;99.90;;;;;;4856688;29;20204;-49
2023/10/28 08:21:02;;;;;;;9.97;9.47;;;12.20;99.90;;;;;;4859225;29;21058;-49
2023/10/28 08:23:28;;;;;;;11.57;10.80;;;12.20;99.90;;;;;;4850578;29;20461;-45
2023/10/28 08:25:56;;;;;;;10.97;10.27;;;12.30;99.90;;;;;;4859694;29;20888;-50
2023/10/28 08:28:21;;;;;;;11.70;11.10;;;12.30;99.90;;;;;;4854509;29;20489;-50
2023/10/28 08:30:47;;;;;;;11.53;10.93;;;12.40;99.90;;;;;;4854351;29;20440;-49
2023/10/28 08:33:12;;;;;;;10.93;10.43;;;12.40;99.90;;;;;;4850780;29;20257;-47
2023/10/28 08:35:38;;;;;;;11.50;11.00;;;12.40;99.90;;;;;;4856877;29;20203;-49
2023/10/28 08:38:06;;;;;;;12.03;11.43;;;12.40;99.90;;;;;;4853906;29;20583;-49
2023/10/28 08:40:33;;;;;;;11.97;11.47;;;12.50;99.90;;;;;;4865190;29;20563;-46
2023/10/28 08:42:59;;;;;;;13.83;12.93;;;12.50;99.90;;;;;;4851142;29;20847;-49
2023/10/28 08:45:26;;;;;;;10.83;10.23;;;12.50;99.90;;;;;;4856011;29;20468;-52
2023/10/28 08:47:53;;;;;;;11.53;11.03;;;12.60;99.90;;;;;;4850115;29;20204;-49
2023/10/28 08:50:24;;;;;;;10.27;9.87;;;12.70;99.90;;;;;;4857628;29;20452;-49
2023/10/28 08:52:55;;;;;;;10.90;10.40;;;12.70;99.90;;;;;;4850490;29;20455;-49
2023/10/28 08:55:23;;;;;;;10.90;10.40;;;12.70;96.00;;;;;;4857054;29;20429;-50
2023/10/28 08:57:51;;;;;;;11.57;11.07;;;12.80;99.90;;;;;;4850298;29;20917;-52
2023/10/28 09:00:20;;;;;;;11.53;11.00;;;12.80;63.30;;;;;;4861255;29;20450;-48
2023/10/28 09:02:48;;;;;;;11.00;10.50;;;12.80;55.30;;;;;;4851868;29;20436;-49
2023/10/28 09:05:15;;;;;;;11.13;10.63;;;12.80;62.50;;;;;;4839963;29;20505;-50
2023/10/28 09:07:43;;;;;;;11.43;10.93;;;13.00;52.90;;;;;;4849827;29;20789;-50
2023/10/28 09:10:10;;;;;;;11.17;10.67;;;13.00;52.10;;;;;;4848544;29;20443;-51
2023/10/28 09:12:36;;;;;;;11.47;10.97;;;13.10;49.60;;;;;;4850258;29;20461;-50
2023/10/28 09:15:03;;;;;;;11.50;11.00;;;13.00;28.30;;;;;;4848464;29;20504;-47
2023/10/28 09:17:28;;;;;;;10.70;10.27;;;13.20;31.20;;;;;;4849163;29;20200;-49
2023/10/28 09:19:56;;;;;;;10.77;10.27;;;13.20;1.00;;;;;;4846320;29;20850;-49
2023/10/28 09:22:22;;;;;;;11.23;10.73;;;13.20;17.20;;;;;;4850642;29;20243;-49
2023/10/28 09:24:52;;;;;;;11.00;10.43;;;13.20;7.90;;;;;;4848677;29;20452;-48
2023/10/28 09:27:18;;;;;;;11.80;11.30;;;13.30;3.00;;;;;;4852020;29;20432;-46
2023/10/28 09:29:43;;;;;;;11.50;11.00;;;13.20;1.00;;;;;;4850077;29;20519;-46
2023/10/28 09:32:10;;;;;;;11.30;10.80;;;13.20;7.90;;;;;;4849520;29;20437;-51
2023/10/28 09:34:40;;;;;;;11.70;11.20;;;13.20;1.00;;;;;;4849486;29;20200;-46
2023/10/28 09:37:09;;;;;;;10.87;10.47;;;13.10;1.00;;;;;;4855073;29;20853;-47
2023/10/28 09:39:36;;;;;;;10.87;10.17;;;13.20;3.20;;;;;;4851589;29;20448;-49
2023/10/28 09:42:05;;;;;;;11.03;10.53;;;13.20;1.00;;;;;;4848651;29;20445;-47
2023/10/28 09:44:31;;;;;;;11.40;10.90;;;13.10;1.00;;;;;;4849648;29;20521;-51
2023/10/28 09:47:04;;;;;;;10.80;10.40;;;13.10;1.00;;;;;;4848238;29;20616;-50
2023/10/28 09:49:31;;;;;;;10.93;10.43;;;13.10;1.00;;;;;;4846430;29;20485;-46
2023/10/28 09:52:06;;;;;;;11.50;11.00;;;13.10;1.00;;;;;;4830736;29;20445;-49
2023/10/28 09:54:36;;;;;;;11.50;11.00;;;13.00;1.00;;;;;;4847235;29;21145;-50
2023/10/28 09:57:02;;;;;;;11.40;10.90;;;13.10;1.00;;;;;;4848722;29;20445;-46
2023/10/28 09:59:33;;;;;;;11.30;10.80;;;13.10;1.00;;;;;;4848988;29;20528;-49
2023/10/28 10:02:02;;;;;;;10.93;10.43;;;13.10;1.00;;;;;;4854800;29;20441;-51
2023/10/28 10:04:41;;;;;;;11.00;10.50;;;13.20;1.00;;;;;;4849622;29;20429;-47
2023/10/28 10:07:09;;;;;;;10.87;10.37;;;13.20;1.00;;;;;;4849660;29;21587;-49
2023/10/28 10:09:47;;;;;;;11.73;11.13;;;13.20;1.00;;;;;;4855615;29;20428;-50
2023/10/28 10:12:13;;;;;;;11.10;10.60;;;13.30;1.00;;;;;;4849237;29;20564;-50
2023/10/28 10:14:48;;;;;;;11.93;11.40;;;13.40;1.00;;;;;;4848876;29;20433;-47
2023/10/28 10:17:19;;;;;;;11.43;10.93;;;13.50;1.00;;;;;;4834723;29;20467;-48
2023/10/28 10:19:48;;;;;;;11.10;10.60;;;13.60;1.00;;;;;;4836385;29;20638;-42
2023/10/28 10:22:17;;;;;;;11.33;10.83;;;13.70;1.00;;;;;;4853277;29;20447;-48
2023/10/28 10:24:51;;;;;;;11.80;11.17;;;13.80;1.00;;;;;;4853282;29;20413;-49
2023/10/28 10:27:44;;;;;;;11.50;10.93;;;14.20;1.00;;;;;;4850592;29;20438;-52
2023/10/28 10:30:10;;;;;;;11.60;11.10;;;14.80;1.00;;;;;;4850030;29;20421;-50
2023/10/28 10:32:50;;;;;;;11.07;10.57;;;15.30;1.00;;;;;;4850874;29;20433;-46
2023/10/28 10:35:30;;;;;;;11.13;10.63;;;15.40;99.90;;;;;;4850686;29;20900;-48
2023/10/28 10:38:07;;;;;;;12.10;11.50;;;15.40;99.90;;;;;;4849413;29;21207;-45
2023/10/28 10:40:34;;;;;;;10.87;10.37;;;15.20;99.90;;;;;;4849646;29;20420;-48
2023/10/28 10:43:07;;;;;;;11.80;11.30;;;15.30;99.90;;;;;;4854889;29;20420;-46
2023/10/28 10:45:34;;;;;;;10.70;10.30;;;15.40;1.00;;;;;;4855121;29;20484;-51
2023/10/28 10:48:04;;;;;;;11.37;10.77;;;15.60;99.90;;;;;;4837152;29;20436;-47
2023/10/28 10:50:31;;;;;;;11.47;10.97;;;15.80;1.00;;;;;;4854604;29;20464;-52
2023/10/28 10:52:58;;;;;;;11.07;10.57;;;15.90;99.90;;;;;;4854369;29;20429;-49
2023/10/28 10:55:24;;;;;;;11.67;10.90;;;16.00;1.00;;;;;;4855284;29;20443;-49
2023/10/28 10:57:53;;;;;;;11.30;10.80;;;16.00;1.00;;;;;;4854029;29;20433;-50
2023/10/28 11:00:19;;;;;;;11.27;10.67;;;16.00;1.00;;;;;;4852591;29;20815;-50
2023/10/28 11:02:47;;;;;;;10.93;10.43;;;16.20;1.00;;;;;;4853970;29;20440;-49
2023/10/28 11:05:13;;;;;;;11.50;11.00;;;16.30;99.90;;;;;;4855073;29;20591;-52
2023/10/28 11:07:38;;;;;;;10.70;10.20;;;15.90;1.00;;;;;;4853783;29;20440;-46
2023/10/28 11:10:08;;;;;;;11.10;10.70;;;15.80;99.90;;;;;;4852231;29;20207;-48
2023/10/28 11:12:34;;;;;;;11.53;11.03;;;15.50;1.00;;;;;;4852640;29;20224;-54
2023/10/28 11:14:59;;;;;;;11.50;11.00;;;15.30;1.00;;;;;;4853145;29;20424;-51
2023/10/28 11:17:25;;;;;;;11.67;11.17;;;15.10;1.00;;;;;;4856013;29;20556;-49
2023/10/28 11:19:51;;;;;;;10.80;10.30;;;15.20;99.90;;;;;;4854448;29;20581;-49
2023/10/28 11:22:17;;;;;;;11.27;10.77;;;15.60;99.90;;;;;;4853077;29;20192;-54
2023/10/28 11:24:43;;;;;;;11.67;11.10;;;15.80;99.90;;;;;;4857935;29;20723;-50
2023/10/28 11:27:09;;;;;;;11.00;10.50;;;16.00;99.90;;;;;;4857494;29;20469;-47
2023/10/28 11:29:38;;;;;;;11.80;11.30;;;16.50;1.00;;;;;;4852351;29;20209;-53
2023/10/28 11:32:07;;;;;;;11.10;10.60;;;17.10;1.00;;;;;;4851573;29;21362;-49
2023/10/28 11:34:40;;;;;;;10.90;10.40;;;17.20;99.90;;;;;;4842329;29;20511;-49
2023/10/28 11:37:10;;;;;;;11.97;11.47;;;17.10;1.00;;;;;;4857459;29;20432;-47
2023/10/28 11:39:38;;;;;;;12.43;11.83;;;17.00;99.90;;;;;;4851930;29;20505;-52
2023/10/28 11:42:22;;;;;;;11.40;10.90;;;17.10;1.00;;;;;;4852334;29;20552;-50
2023/10/28 11:44:49;;;;;;;11.60;11.10;;;17.20;1.00;;;;;;4853172;29;20463;-51
2023/10/28 11:47:17;;;;;;;11.43;10.60;;;17.50;1.00;;;;;;4854640;29;20427;-49
2023/10/28 11:49:43;;;;;;;11.27;10.77;;;17.80;99.90;;;;;;4852545;29;20421;-49
2023/10/28 11:52:11;;;;;;;11.40;10.80;;;18.20;99.90;;;;;;4845713;29;20440;-51
2023/10/28 11:54:37;;;;;;;12.13;11.53;;;18.60;1.00;;;;;;4850150;29;20425;-46
2023/10/28 11:57:03;;;;;;;11.40;10.90;;;19.00;1.00;;;;;;4851667;29;20447;-47
2023/10/28 11:59:29;;;;;;;11.40;10.80;;;18.80;1.00;;;;;;4851891;29;20913;-49
2023/10/28 12:01:54;;;;;;;11.70;11.20;;;19.20;1.00;;;;;;4850797;29;20429;-48
2023/10/28 12:04:24;;;;;;;11.83;11.33;;;19.70;1.00;;;;;;4850457;29;20204;-52
2023/10/28 12:06:51;;;;;;;10.63;10.23;;;20.00;1.00;;;;;;4856425;29;20208;-50
2023/10/28 12:09:16;;;;;;;11.37;10.87;;;20.10;1.00;;;;;;4850070;29;20433;-49
2023/10/28 12:11:43;;;;;;;11.60;11.10;;;19.60;1.00;;;;;;4849719;29;21365;-50
2023/10/28 12:14:10;;;;;;;11.63;11.13;;;19.10;1.00;;;;;;4849670;29;21019;-48
2023/10/28 12:16:39;;;;;;;10.73;10.33;;;19.10;1.00;;;;;;4849460;29;20425;-50
2023/10/28 12:19:08;;;;;;;11.70;11.20;;;19.00;1.00;;;;;;4846099;29;20531;-50
2023/10/28 12:21:37;;;;;;;10.90;10.40;;;19.10;1.00;;;;;;4852046;29;20420;-48
2023/10/28 12:24:03;;;;;;;11.07;10.67;;;19.20;1.00;;;;;;4850679;29;20429;-51
2023/10/28 12:26:29;;;;;;;11.27;10.87;;;18.50;1.00;;;;;;4854127;29;21482;-45
2023/10/28 12:28:56;;;;;;;11.70;11.20;;;18.30;1.00;;;;;;4850183;29;20508;-46
2023/10/28 12:31:22;;;;;;;11.13;10.63;;;17.80;99.90;;;;;;4852557;29;20184;-45